Thunder radar more information blitzortung!


Radar de pluja more information rain snow radar


Visita la nostra xarxa de llocs de meteo:

Template documentation
and downloads

And another site



No particular awareness of the weather is required.    There are no Weather-warnings

Pagina Historial Weather Underground text

Diari Resum May 14, 2017 Unitats:  Imperial    Mètric   Tant
« Previous Dia
SegĂźent Dia »
Diari Setmana Mensual Anual Personalitzada
  Maxima: Minima: Media:
Temperatura: 76.3 °F 56.8 °F 69.1 °F
Punt de rosada: 54 °F 45.7 °F 50.7 °F
Humitat: 73 % 42 % 53 %
Wind Speed: 15 mph 0 mph 4.6 mph
RĂ fegues de vent: 15 mph - -
Vent:- - ESE
Pression baro: 30.3 in 30.1 in -
Precipitacions: 0 in    
Historical Graphs
 
 
Dades de taula per May 14, 2017
Temps Temperatura Punt de rosada Pression baro Vent Wind Speed RĂ fegues de vent Humitat Rainfall Rate (Hourly)
00:02 63.1 °F 45.7 °F 30.1 in West 2.3 mph 2.3 mph 53 % 0 in
00:07 63.1 °F 45.7 °F 30.1 in WNW 2.3 mph 2.3 mph 53 % 0 in
03:15 63 °F 51.1 °F 30.2 in SE 1 mph 2 mph 65 % 0 in
03:25 62.4 °F 50.2 °F 30.2 in NE 3 mph 3 mph 64 % 0 in
03:35 62.6 °F 50.2 °F 30.2 in NE 1 mph 3 mph 64 % 0 in
03:45 62.8 °F 50 °F 30.2 in NNE 2 mph 3 mph 63 % 0 in
03:55 64.8 °F 52 °F 30.2 in Calm   3 mph 63 % 0 in
04:05 64.9 °F 51.3 °F 30.2 in NE 2 mph 2 mph 61 % 0 in
04:15 65.1 °F 51.3 °F 30.2 in NE 2 mph 3 mph 61 % 0 in
04:25 66.9 °F 52.2 °F 30.2 in NNE 2 mph 3 mph 59 % 0 in
04:35 65.8 °F 51.6 °F 30.2 in NNE 3 mph 4 mph 60 % 0 in
04:45 67.8 °F 53.1 °F 30.2 in NE 1 mph 4 mph 59 % 0 in
04:55 69.1 °F 53.8 °F 30.2 in NE 1 mph 3 mph 58 % 0 in
05:05 69.6 °F 53.2 °F 30.2 in NE 2 mph 5 mph 56 % 0 in
05:15 69.1 °F 52.7 °F 30.2 in NE 1 mph 3 mph 56 % 0 in
05:25 69.6 °F 52.7 °F 30.2 in NE 3 mph 4 mph 55 % 0 in
05:35 71.4 °F 54 °F 30.2 in East 1 mph 2 mph 54 % 0 in
05:45 71.4 °F 53.4 °F 30.2 in ESE 1 mph 4 mph 53 % 0 in
05:55 71.8 °F 53.2 °F 30.2 in East 3 mph 4 mph 52 % 0 in
06:05 71.4 °F 52.9 °F 30.2 in ESE 2 mph 4 mph 52 % 0 in
06:15 71.2 °F 52.7 °F 30.2 in East 3 mph 4 mph 52 % 0 in
06:25 72 °F 53.4 °F 30.2 in ENE 3 mph 4 mph 52 % 0 in
06:35 73 °F 53.8 °F 30.2 in ESE 3 mph 4 mph 51 % 0 in
06:45 73 °F 53.2 °F 30.2 in ESE 1 mph 6 mph 50 % 0 in
06:55 73.6 °F 52.7 °F 30.2 in East 5 mph 5 mph 48 % 0 in
07:05 74.5 °F 53.4 °F 30.2 in SE 3 mph 5 mph 48 % 0 in
07:15 74.5 °F 53.4 °F 30.2 in SE 2 mph 5 mph 48 % 0 in
07:25 73.8 °F 52.3 °F 30.2 in ESE 6 mph 8 mph 47 % 0 in
12:33 74.5 °F 52.9 °F 30.2 in West 5.8 mph 5.8 mph 47 % 0 in
12:38 74.7 °F 52.5 °F 30.2 in ENE 5.8 mph 5.8 mph 46 % 0 in
12:43 74.7 °F 52.5 °F 30.2 in NE 9.2 mph 9.2 mph 46 % 0 in
12:48 74.1 °F 51.4 °F 30.2 in SSE 6.9 mph 6.9 mph 45 % 0 in
12:53 74.8 °F 52.7 °F 30.2 in SSE 6 mph 6 mph 46 % 0 in
12:58 74.7 °F 52 °F 30.2 in ESE 9.2 mph 9.2 mph 45 % 0 in
13:03 75 °F 52.2 °F 30.2 in SE 4.6 mph 4.6 mph 45 % 0 in
13:08 75.6 °F 52.2 °F 30.2 in South 5.8 mph 5.8 mph 44 % 0 in
13:13 76.3 °F 52.9 °F 30.2 in SE 8.1 mph 8.1 mph 44 % 0 in
13:18 74.8 °F 52.2 °F 30.2 in ESE 7.4 mph 7.4 mph 45 % 0 in
13:23 74.1 °F 51.4 °F 30.2 in South 6.9 mph 6.9 mph 45 % 0 in
13:28 74.5 °F 51.6 °F 30.2 in ESE 6.9 mph 6.9 mph 45 % 0 in
13:33 74.7 °F 52 °F 30.2 in ESE 12.8 mph 12.8 mph 45 % 0 in
13:38 74.3 °F 51.6 °F 30.2 in ESE 11.5 mph 11.5 mph 45 % 0 in
13:43 73.9 °F 51.3 °F 30.2 in SE 13.8 mph 13.8 mph 45 % 0 in
13:48 74.1 °F 51.4 °F 30.2 in ESE 11.2 mph 11.2 mph 45 % 0 in
13:53 74.7 °F 52 °F 30.2 in ESE 8.1 mph 8.1 mph 45 % 0 in
13:58 75 °F 52.2 °F 30.2 in ESE 8.7 mph 8.7 mph 45 % 0 in
14:03 74.5 °F 52.3 °F 30.2 in NNE 6.4 mph 6.4 mph 46 % 0 in
14:08 73.4 °F 50.7 °F 30.2 in ESE 9.2 mph 9.2 mph 45 % 0 in
14:13 73.4 °F 51.4 °F 30.2 in ESE 9.2 mph 9.2 mph 46 % 0 in
14:18 73.9 °F 51.8 °F 30.2 in ENE 8.1 mph 8.1 mph 46 % 0 in
14:23 73.9 °F 51.8 °F 30.2 in SSW 9.2 mph 9.2 mph 46 % 0 in
14:28 73.8 °F 51.6 °F 30.2 in ESE 8.1 mph 8.1 mph 46 % 0 in
14:33 73.8 °F 51.6 °F 30.2 in SE 10 mph 10 mph 46 % 0 in
14:38 73.8 °F 51.6 °F 30.2 in ESE 5.8 mph 5.8 mph 46 % 0 in
14:43 73.6 °F 51.4 °F 30.2 in ESE 8.1 mph 8.1 mph 46 % 0 in
14:48 73.6 °F 51.4 °F 30.2 in SE 6 mph 6 mph 46 % 0 in
14:53 73.2 °F 51.3 °F 30.2 in NE 5.8 mph 5.8 mph 46 % 0 in
14:58 72.9 °F 50.9 °F 30.2 in ESE 9.2 mph 9.2 mph 46 % 0 in
15:03 72.9 °F 51.4 °F 30.2 in NE 8.1 mph 8.1 mph 47 % 0 in
15:08 73.2 °F 51.3 °F 30.2 in SE 8.1 mph 8.1 mph 46 % 0 in
15:13 73 °F 51.1 °F 30.2 in SE 8.1 mph 8.1 mph 46 % 0 in
15:18 73.4 °F 50.7 °F 30.2 in ENE 8.1 mph 8.1 mph 45 % 0 in
15:23 73.8 °F 51.1 °F 30.2 in ENE 10.4 mph 10.4 mph 45 % 0 in
15:28 74.1 °F 52 °F 30.2 in ENE 9.2 mph 9.2 mph 46 % 0 in
15:33 74.3 °F 52.2 °F 30.2 in ENE 6.9 mph 6.9 mph 46 % 0 in
15:38 73.9 °F 51.3 °F 30.2 in ESE 9.2 mph 9.2 mph 45 % 0 in
15:43 73.8 °F 50.5 °F 30.2 in ESE 10.4 mph 10.4 mph 44 % 0 in
15:48 74.3 °F 51.1 °F 30.2 in East 7.1 mph 7.1 mph 44 % 0 in
15:53 74.7 °F 51.3 °F 30.2 in East 7.8 mph 7.8 mph 44 % 0 in
15:58 74.7 °F 51.3 °F 30.2 in ESE 8.1 mph 8.1 mph 44 % 0 in
16:03 74.5 °F 51.1 °F 30.2 in NE 8.1 mph 8.1 mph 44 % 0 in
16:08 74.7 °F 50.7 °F 30.2 in ESE 8.1 mph 8.1 mph 43 % 0 in
16:13 74.8 °F 50.7 °F 30.2 in SSE 6.2 mph 6.2 mph 43 % 0 in
16:18 75.4 °F 52 °F 30.2 in ESE 6.2 mph 6.2 mph 44 % 0 in
16:23 75.4 °F 51.3 °F 30.2 in East 9.2 mph 9.2 mph 43 % 0 in
16:28 75.4 °F 51.3 °F 30.2 in East 8.7 mph 8.7 mph 43 % 0 in
16:33 75 °F 51.1 °F 30.2 in ENE 10.4 mph 10.4 mph 43 % 0 in
16:38 75.2 °F 51.8 °F 30.2 in ENE 6.9 mph 6.9 mph 44 % 0 in
16:43 74.7 °F 50.7 °F 30.2 in ENE 11.5 mph 11.5 mph 43 % 0 in
16:48 75.2 °F 51.3 °F 30.2 in South 5.8 mph 5.8 mph 43 % 0 in
16:53 75.2 °F 51.3 °F 30.2 in ENE 9.2 mph 9.2 mph 43 % 0 in
16:58 75.2 °F 51.3 °F 30.2 in ESE 10.2 mph 10.2 mph 43 % 0 in
17:03 75 °F 51.1 °F 30.2 in ESE 15 mph 15 mph 43 % 0 in
17:08 75 °F 51.1 °F 30.2 in ESE 10.4 mph 10.4 mph 43 % 0 in
17:13 74.8 °F 50.2 °F 30.2 in ENE 11.5 mph 11.5 mph 42 % 0 in
17:18 74.8 °F 50.7 °F 30.2 in ESE 6.9 mph 6.9 mph 43 % 0 in
17:23 74.7 °F 50 °F 30.2 in ENE 9.2 mph 9.2 mph 42 % 0 in
17:28 74.7 °F 50.7 °F 30.2 in ESE 9.2 mph 9.2 mph 43 % 0 in
17:33 74.7 °F 50.7 °F 30.2 in ESE 6.9 mph 6.9 mph 43 % 0 in
17:38 74.7 °F 50 °F 30.2 in East 8.1 mph 8.1 mph 42 % 0 in
17:43 74.3 °F 49.6 °F 30.2 in ESE 11.5 mph 11.5 mph 42 % 0 in
17:48 74.1 °F 50.2 °F 30.2 in ENE 9.2 mph 9.2 mph 43 % 0 in
17:53 74.3 °F 50.4 °F 30.2 in ESE 9.2 mph 9.2 mph 43 % 0 in
17:58 73.9 °F 50 °F 30.2 in ESE 9.8 mph 9.8 mph 43 % 0 in
18:03 73.8 °F 49.8 °F 30.2 in ESE 8.1 mph 8.1 mph 43 % 0 in
18:08 73.4 °F 49.5 °F 30.2 in ESE 10.4 mph 10.4 mph 43 % 0 in
18:13 73 °F 49.8 °F 30.2 in SSE 12.7 mph 12.7 mph 44 % 0 in
18:18 72.9 °F 50.4 °F 30.2 in East 10.4 mph 10.4 mph 45 % 0 in
18:23 72.9 °F 49.6 °F 30.2 in NE 6.2 mph 6.2 mph 44 % 0 in
18:28 72.9 °F 50.4 °F 30.2 in ESE 8.1 mph 8.1 mph 45 % 0 in
18:33 72.1 °F 49.6 °F 30.2 in SE 10.4 mph 10.4 mph 45 % 0 in
18:38 72.1 °F 50.2 °F 30.2 in ESE 8.1 mph 8.1 mph 46 % 0 in
18:43 72.1 °F 49.6 °F 30.2 in ENE 6.9 mph 6.9 mph 45 % 0 in
18:48 72 °F 50 °F 30.2 in ESE 9.2 mph 9.2 mph 46 % 0 in
18:53 72 °F 50 °F 30.2 in ESE 9.2 mph 9.2 mph 46 % 0 in
18:58 71.8 °F 50.5 °F 30.2 in ESE 9.2 mph 9.2 mph 47 % 0 in
19:03 71.6 °F 50.4 °F 30.2 in East 5.8 mph 5.8 mph 47 % 0 in
19:08 71.2 °F 50.5 °F 30.2 in East 5.8 mph 5.8 mph 48 % 0 in
19:13 71.2 °F 50.5 °F 30.2 in ENE 4.6 mph 4.6 mph 48 % 0 in
19:15 62.6 °F 50.2 °F 30.3 in Calm   1 mph 64 % 0 in
19:18 71.2 °F 50.5 °F 30.2 in ENE 4.6 mph 4.6 mph 48 % 0 in
19:23 71.4 °F 50.7 °F 30.2 in ENE 5.8 mph 5.8 mph 48 % 0 in
19:25 62.2 °F 50.4 °F 30.3 in Calm     65 % 0 in
19:28 71.4 °F 50.7 °F 30.2 in East 3.5 mph 3.5 mph 48 % 0 in
19:33 71.2 °F 50.5 °F 30.2 in East 4.6 mph 4.6 mph 48 % 0 in
19:35 62.1 °F 50.5 °F 30.3 in Calm     66 % 0 in
19:38 71.1 °F 50.4 °F 30.2 in ESE 6 mph 6 mph 48 % 0 in
19:43 71.2 °F 50.5 °F 30.2 in ESE 3.5 mph 3.8 mph 48 % 0 in
19:45 61.5 °F 50.2 °F 30.3 in Calm     66 % 0 in
19:48 71.1 °F 50.4 °F 30.2 in ENE 3.5 mph 3.5 mph 48 % 0 in
19:49 71.1 °F 50.4 °F 30.2 in ENE 3.5 mph 3.5 mph 48 % 0 in
19:54 70.9 °F 50.2 °F 30.2 in ESE 4.6 mph 4.6 mph 48 % 0 in
19:55 61.3 °F 50.4 °F 30.3 in Calm     67 % 0 in
19:59 70.9 °F 50.7 °F 30.2 in East 4.6 mph 4.6 mph 49 % 0 in
20:04 70.7 °F 50 °F 30.2 in ESE 4.6 mph 4.6 mph 48 % 0 in
20:05 61.2 °F 50.2 °F 30.3 in NW 1 mph 2 mph 67 % 0 in
20:09 70.7 °F 50 °F 30.2 in East 3.5 mph 3.6 mph 48 % 0 in
20:14 70.3 °F 50.4 °F 30.2 in NE 3.5 mph 3.5 mph 49 % 0 in
20:15 61 °F 50.4 °F 30.3 in Calm   2 mph 68 % 0 in
20:19 70.2 °F 50.2 °F 30.2 in ENE 4.6 mph 4.6 mph 49 % 0 in
20:24 69.8 °F 49.8 °F 30.2 in ESE 4.6 mph 4.6 mph 49 % 0 in
20:25 61 °F 50.4 °F 30.3 in Calm     68 % 0 in
20:29 69.6 °F 50.2 °F 30.2 in SE 3.5 mph 4 mph 50 % 0 in
20:34 69.4 °F 50 °F 30.2 in ESE 4.6 mph 4.6 mph 50 % 0 in
20:35 60.8 °F 50.2 °F 30.3 in WNW 1 mph 2 mph 68 % 0 in
20:39 69.3 °F 49.8 °F 30.2 in ESE 4.6 mph 4.6 mph 50 % 0 in
20:44 69.1 °F 50.2 °F 30.2 in East 3.8 mph 3.8 mph 51 % 0 in
20:45 60.8 °F 50.2 °F 30.3 in Calm   1 mph 68 % 0 in
20:49 68.9 °F 50 °F 30.2 in ENE 2.3 mph 2.3 mph 51 % 0 in
20:54 68.7 °F 49.8 °F 30.2 in NE 2.3 mph 2.3 mph 51 % 0 in
20:55 60.6 °F 50 °F 30.3 in Calm   2 mph 68 % 0 in
20:59 68.5 °F 50.2 °F 30.2 in ESE 4.6 mph 4.6 mph 52 % 0 in
21:04 68.4 °F 50 °F 30.2 in ENE 3.1 mph 3.1 mph 52 % 0 in
21:05 59.7 °F 49.1 °F 30.3 in West 1 mph 2 mph 68 % 0 in
21:09 68.2 °F 49.8 °F 30.2 in NNE 2.3 mph 2.3 mph 52 % 0 in
21:14 68 °F 49.6 °F 30.2 in NE 2.4 mph 2.4 mph 52 % 0 in
21:15 58.8 °F 48.4 °F 30.3 in WSW 2 mph 2 mph 68 % 0 in
21:19 67.8 °F 50.2 °F 30.2 in NE 2.9 mph 2.9 mph 53 % 0 in
21:24 67.5 °F 49.6 °F 30.2 in ENE 4.6 mph 4.6 mph 53 % 0 in
21:25 58.8 °F 48.4 °F 30.3 in SW 3 mph 3 mph 68 % 0 in
21:29 67.3 °F 49.6 °F 30.2 in NNE 2.3 mph 2.3 mph 53 % 0 in
21:34 67.1 °F 49.5 °F 30.2 in NE 1.2 mph   53 % 0 in
21:35 58.3 °F 48.2 °F 30.3 in SW 2 mph 3 mph 69 % 0 in
21:39 66.9 °F 49.6 °F 30.2 in NNE 2.3 mph 2.3 mph 54 % 0 in
21:44 66.9 °F 49.6 °F 30.3 in NNW 1.2 mph   54 % 0 in
21:45 58.1 °F 48.7 °F 30.3 in Calm   3 mph 71 % 0 in
21:49 66.7 °F 50.2 °F 30.3 in Calm     55 % 0 in
21:54 66.4 °F 49.6 °F 30.3 in NNE 2.3 mph 2.3 mph 55 % 0 in
21:55 58.1 °F 49.1 °F 30.3 in Calm     72 % 0 in
21:59 66.2 °F 49.6 °F 30.3 in NNE 2.3 mph 2.3 mph 55 % 0 in
22:04 66 °F 50.4 °F 30.3 in Calm     57 % 0 in
22:05 58.5 °F 49.5 °F 30.3 in Calm   1 mph 72 % 0 in
22:09 65.8 °F 50.2 °F 30.3 in NNE 2.3 mph 2.3 mph 57 % 0 in
22:14 65.7 °F 50 °F 30.3 in North 1.2 mph   57 % 0 in
22:15 58.5 °F 49.5 °F 30.3 in Calm   1 mph 72 % 0 in
22:19 65.5 °F 50.4 °F 30.3 in Calm     58 % 0 in
22:24 65.3 °F 50.2 °F 30.3 in Calm     58 % 0 in
22:25 58.3 °F 49.3 °F 30.3 in Calm     72 % 0 in
22:29 65.1 °F 50.4 °F 30.3 in North 2.9 mph 2.9 mph 59 % 0 in
22:34 64.9 °F 50.4 °F 30.3 in NNE 1.2 mph 1.2 mph 59 % 0 in
22:35 58.3 °F 49.3 °F 30.3 in Calm     72 % 0 in
22:39 64.8 °F 50.5 °F 30.3 in Calm     60 % 0 in
22:44 64.6 °F 50.4 °F 30.3 in Calm     60 % 0 in
22:45 57.9 °F 48.9 °F 30.3 in Calm   2 mph 72 % 0 in
22:49 64.4 °F 50.2 °F 30.3 in NE 2.3 mph 2.3 mph 60 % 0 in
22:54 64.4 °F 50.2 °F 30.3 in Calm     60 % 0 in
22:55 57 °F 48 °F 30.3 in West 1 mph 2 mph 72 % 0 in
22:59 64.2 °F 50.5 °F 30.3 in NNE 0.9 mph   61 % 0 in
23:04 64.2 °F 50.5 °F 30.3 in ENE 1.6 mph 1.6 mph 61 % 0 in
23:05 56.8 °F 48.4 °F 30.3 in Calm   1 mph 73 % 0 in
23:09 64 °F 50.4 °F 30.3 in Calm     61 % 0 in
23:14 63.9 °F 50.5 °F 30.3 in NE 1.2 mph   62 % 0 in
23:15 57 °F 48 °F 30.3 in SW 2 mph 2 mph 72 % 0 in
23:19 63.7 °F 50.4 °F 30.3 in Calm     62 % 0 in
23:24 63.7 °F 50.4 °F 30.3 in Calm     62 % 0 in
23:25 56.8 °F 47.8 °F 30.3 in SW 2 mph 2 mph 72 % 0 in
23:29 63.5 °F 50.2 °F 30.3 in Calm     62 % 0 in
23:34 63.3 °F 50.2 °F 30.3 in Calm     62 % 0 in
23:35 56.8 °F 48.4 °F 30.3 in WSW 2 mph 2 mph 73 % 0 in
23:39 63.1 °F 50.4 °F 30.3 in Calm     63 % 0 in
23:44 63.1 °F 50.4 °F 30.3 in Calm     63 % 0 in
23:45 57.2 °F 48.6 °F 30.3 in WSW 1 mph 2 mph 73 % 0 in
23:49 63.1 °F 50.4 °F 30.3 in Calm     63 % 0 in
23:54 63.1 °F 50.4 °F 30.3 in NNE 1.4 mph 1.4 mph 63 % 0 in
23:55 57.4 °F 48.7 °F 30.3 in WSW 1 mph 2 mph 73 % 0 in
23:59 63 °F 50.2 °F 30.3 in NNW 1.2 mph   63 % 0 in
Meteo Sesrovires
Elogis d' Weather Underground - 3.5 mb

Guio original per  Jim McMurry - jmcmurry@mwt.net Adaptat per a la plantilla per  Wim van der Kuil - Leuven-Template.eu

Trobareu la nostra informacio del temps tambe a:

Weather Underground

AWEKAS